Pu Dun — XUUB9 — position and weather

sailwx.info

Track history (hours):
 
Tides and Currents Weather Stations Pressure Air Temp Water Temp Dewpoint Dewpoint Depression Visibility Wind Speed Wind Dir Waves Ship Positions

Pu Dun

Last reported at 2015-May-28 15:30 UTC. Time now 2015-May-29 22:31 UTC.
Position N 35°07' E 129°15'.

Length 75 m; draft 4.2 m.

Type: Cargo ship. MMSI: 515213000.

Date/timePositionNaut miles runAvg speedWind from/ knotsBaromVisibWave heightAir tempDewpointWater temp
2015-May-28 15:30N 35°07' E 129°15'284 6.2
2015-May-26 17:33N 34°38' E 134°59'1110.7
2015-May-26 16:33N 34°36' E 135°11'1010.3
2015-May-26 15:33N 34°38' E 135°23'3 0.4
2015-May-26 07:32N 34°38' E 135°28'0 0.0
2015-May-26 05:14N 34°38' E 135°28'0 0.0
2015-May-26 04:32N 34°38' E 135°28'0 0.0
2015-May-26 03:32N 34°38' E 135°28'0 0.0
2015-May-26 02:32N 34°38' E 135°28'0 0.0
2015-May-26 01:32N 34°38' E 135°28'0 0.0
2015-May-25 23:32N 34°38' E 135°28'2 1.6
2015-May-25 22:33N 34°39' E 135°26'4 3.1
2015-May-25 21:24N 34°37' E 135°22'0 0.0
2015-May-25 20:30N 34°37' E 135°22'0 0.1
2015-May-25 19:30N 34°37' E 135°22'0 0.1
2015-May-25 18:30N 34°37' E 135°22'3 3.1
2015-May-25 17:33N 34°36' E 135°19'8 7.9
2015-May-25 16:33N 34°32' E 135°11'7 6.7
2015-May-25 15:33N 34°35' E 135°04'8 8.4
2015-May-25 14:33N 34°35' E 134°54'  
Track history (hours):
 
Tides and Currents Weather Stations Pressure Air Temp Water Temp Dewpoint Dewpoint Depression Visibility Wind Speed Wind Dir Waves Ship Positions

Pu Dun

Last reported at 2015-May-28 15:30 UTC. Time now 2015-May-29 22:31 UTC.
Position N 35°07' E 129°15'.

Length 75 m; draft 4.2 m.

Type: Cargo ship. MMSI: 515213000.

Date/timePositionNaut miles runAvg speedWind from/ knotsBaromVisibWave heightAir tempDewpointWater temp
2015-May-28 15:30N 35°07' E 129°15'284 6.2
2015-May-26 17:33N 34°38' E 134°59'1110.7
2015-May-26 16:33N 34°36' E 135°11'1010.3
2015-May-26 15:33N 34°38' E 135°23'3 0.4
2015-May-26 07:32N 34°38' E 135°28'0 0.0
2015-May-26 05:14N 34°38' E 135°28'0 0.0
2015-May-26 04:32N 34°38' E 135°28'0 0.0
2015-May-26 03:32N 34°38' E 135°28'0 0.0
2015-May-26 02:32N 34°38' E 135°28'0 0.0
2015-May-26 01:32N 34°38' E 135°28'0 0.0
2015-May-25 23:32N 34°38' E 135°28'2 1.6
2015-May-25 22:33N 34°39' E 135°26'4 3.1
2015-May-25 21:24N 34°37' E 135°22'0 0.0
2015-May-25 20:30N 34°37' E 135°22'0 0.1
2015-May-25 19:30N 34°37' E 135°22'0 0.1
2015-May-25 18:30N 34°37' E 135°22'3 3.1
2015-May-25 17:33N 34°36' E 135°19'8 7.9
2015-May-25 16:33N 34°32' E 135°11'7 6.7
2015-May-25 15:33N 34°35' E 135°04'8 8.4
2015-May-25 14:33N 34°35' E 134°54'  

Dump ship's entire track history